Time;durP1;ratioP1;P1;durP2;ratioP2;P2;SDS_P1;SDS_P2;PMS_P1;PMS_P2;Temp;Humidity;BMP_temperature;BMP_pressure;BME280_temperature;BME280_humidity;BME280_pressure;Samples;Min_cycle;Max_cycle;Signal;HPM_P1;HPM_P2
2022/05/31 00:02:12;;;;;;;6.00;3.33;;;11.40;99.90;;;;;;5037408;28;20225;-73
2022/05/31 00:04:40;;;;;;;5.95;4.15;;;11.40;99.90;;;;;;5033147;28;20209;-73
2022/05/31 00:07:07;;;;;;;5.80;3.42;;;11.40;99.90;;;;;;5027665;28;20629;-73
2022/05/31 00:09:37;;;;;;;5.15;3.60;;;11.30;99.90;;;;;;5024208;28;20201;-74
2022/05/31 00:12:07;;;;;;;4.07;3.05;;;11.30;99.90;;;;;;5017758;28;20228;-73
2022/05/31 00:14:34;;;;;;;3.80;3.45;;;11.30;99.90;;;;;;5006912;28;20198;-74
2022/05/31 00:17:01;;;;;;;5.95;3.55;;;11.30;99.90;;;;;;5008756;28;20206;-73
2022/05/31 00:19:29;;;;;;;6.75;3.35;;;11.20;99.90;;;;;;5011671;28;20559;-75
2022/05/31 00:22:07;;;;;;;8.63;4.28;;;11.20;99.90;;;;;;5009557;28;20209;-73
2022/05/31 00:24:35;;;;;;;9.15;4.70;;;11.20;99.90;;;;;;5003382;28;20248;-73
2022/05/31 00:27:04;;;;;;;6.05;3.90;;;11.20;99.90;;;;;;5010043;28;20251;-74
2022/05/31 00:29:31;;;;;;;7.78;4.95;;;11.20;99.90;;;;;;5007573;28;20200;-73
2022/05/31 00:32:01;;;;;;;7.35;4.55;;;11.10;99.90;;;;;;5002061;28;20241;-74
2022/05/31 00:34:29;;;;;;;10.68;5.15;;;11.10;99.90;;;;;;5005554;28;20224;-73
2022/05/31 00:36:57;;;;;;;4.80;4.32;;;11.20;99.90;;;;;;5006324;28;20636;-73
2022/05/31 00:39:26;;;;;;;5.05;3.65;;;11.20;99.90;;;;;;5008146;28;20228;-74
2022/05/31 00:42:07;;;;;;;7.70;3.90;;;11.10;99.90;;;;;;5017121;28;20261;-72
2022/05/31 00:44:36;;;;;;;4.57;3.85;;;11.10;99.90;;;;;;5013003;28;20212;-74
2022/05/31 00:47:06;;;;;;;4.82;4.32;;;11.10;99.90;;;;;;5025831;28;20216;-74
2022/05/31 00:49:50;;;;;;;6.80;3.72;;;11.10;99.90;;;;;;5017415;28;20201;-73
2022/05/31 00:55:14;;;;;;;5.97;3.83;;;11.10;99.90;;;;;;5012291;28;20220;-73
2022/05/31 00:57:47;;;;;;;6.53;4.38;;;11.00;99.90;;;;;;5011628;28;20196;-73
2022/05/31 01:00:17;;;;;;;5.63;4.25;;;11.00;99.90;;;;;;4993979;28;20574;-73
2022/05/31 01:02:49;;;;;;;5.95;4.45;;;11.10;99.90;;;;;;5013036;28;20216;-73
2022/05/31 01:05:17;;;;;;;6.65;4.78;;;11.00;99.90;;;;;;5008223;28;20586;-73
2022/05/31 01:07:46;;;;;;;6.55;4.90;;;11.00;99.90;;;;;;5012454;28;20206;-73
2022/05/31 01:10:16;;;;;;;6.75;4.70;;;11.00;99.90;;;;;;5016407;28;20652;-73
2022/05/31 01:12:46;;;;;;;7.57;4.85;;;11.00;99.90;;;;;;5016244;28;20403;-74
2022/05/31 01:15:19;;;;;;;6.03;5.35;;;11.00;99.90;;;;;;5015686;28;20305;-73
2022/05/31 01:17:47;;;;;;;6.22;5.63;;;11.00;99.90;;;;;;5016007;28;20209;-73
2022/05/31 01:20:21;;;;;;;5.60;5.10;;;11.10;99.90;;;;;;5019454;28;20206;-74
2022/05/31 01:22:51;;;;;;;6.80;3.70;;;11.10;99.90;;;;;;5000037;28;20226;-73
2022/05/31 01:25:38;;;;;;;6.47;4.70;;;11.10;99.90;;;;;;5016643;28;20368;-74
2022/05/31 01:28:17;;;;;;;5.43;4.85;;;11.20;99.90;;;;;;5025681;28;20205;-74
2022/05/31 01:30:49;;;;;;;6.68;4.93;;;11.20;99.90;;;;;;5006605;28;20569;-74
2022/05/31 01:33:24;;;;;;;7.63;5.03;;;11.20;99.90;;;;;;5025477;28;20236;-74
2022/05/31 01:35:53;;;;;;;6.22;4.70;;;11.20;99.90;;;;;;5017089;28;20285;-74
2022/05/31 01:38:24;;;;;;;5.10;4.10;;;11.20;99.90;;;;;;5017888;28;20348;-74
2022/05/31 01:41:09;;;;;;;5.28;4.70;;;11.30;99.90;;;;;;5010181;28;20290;-74
2022/05/31 01:43:36;;;;;;;4.90;4.40;;;11.30;99.90;;;;;;5014471;28;20278;-72
2022/05/31 01:46:08;;;;;;;4.95;4.35;;;11.30;99.90;;;;;;5017475;28;20262;-73
2022/05/31 01:48:37;;;;;;;5.22;4.68;;;11.30;99.90;;;;;;5019866;28;20199;-74
2022/05/31 01:51:08;;;;;;;6.88;3.70;;;11.30;99.90;;;;;;5024789;28;20260;-74
2022/05/31 01:53:35;;;;;;;7.32;5.00;;;11.30;99.90;;;;;;5014375;28;20197;-73
2022/05/31 01:56:02;;;;;;;12.93;5.10;;;11.30;99.90;;;;;;5024117;28;20580;-74
2022/05/31 01:58:34;;;;;;;8.40;4.22;;;11.20;99.90;;;;;;5022300;28;20199;-74
2022/05/31 02:01:02;;;;;;;4.90;4.40;;;11.20;99.90;;;;;;5024604;28;20251;-73
2022/05/31 02:03:32;;;;;;;6.82;4.57;;;11.20;99.90;;;;;;5018906;28;20307;-73
2022/05/31 02:05:59;;;;;;;9.10;4.90;;;11.20;99.90;;;;;;5016272;28;20225;-73
2022/05/31 02:08:30;;;;;;;5.45;4.43;;;11.20;99.90;;;;;;5012646;28;20209;-73
2022/05/31 02:10:57;;;;;;;4.80;4.25;;;11.20;99.90;;;;;;5019476;28;20210;-74
2022/05/31 02:13:26;;;;;;;4.45;4.05;;;11.30;99.90;;;;;;5025197;28;20229;-73
2022/05/31 02:15:54;;;;;;;7.85;5.03;;;11.30;99.90;;;;;;5012031;28;20569;-74
2022/05/31 02:18:22;;;;;;;4.10;3.70;;;11.30;99.90;;;;;;5020429;28;20234;-73
2022/05/31 02:20:49;;;;;;;7.30;6.10;;;11.30;99.90;;;;;;5014856;28;20236;-73
2022/05/31 02:23:16;;;;;;;4.28;3.67;;;11.30;99.90;;;;;;5008674;28;20272;-75
2022/05/31 02:25:45;;;;;;;8.82;5.60;;;11.30;99.90;;;;;;5018758;28;20608;-73
2022/05/31 02:28:12;;;;;;;5.63;4.72;;;11.30;99.90;;;;;;5015764;28;20202;-73
2022/05/31 02:30:39;;;;;;;7.53;5.05;;;11.30;99.90;;;;;;5015172;28;20247;-74
2022/05/31 02:33:06;;;;;;;6.72;5.43;;;11.30;99.90;;;;;;5008738;28;20285;-74
2022/05/31 02:35:33;;;;;;;9.00;5.63;;;11.30;99.90;;;;;;5016849;28;20316;-74
2022/05/31 02:38:00;;;;;;;6.43;4.97;;;11.30;99.90;;;;;;5013206;28;20328;-74
2022/05/31 02:40:28;;;;;;;8.82;6.03;;;11.40;99.90;;;;;;5011429;28;20235;-73
2022/05/31 02:42:56;;;;;;;6.55;5.45;;;11.30;99.90;;;;;;5017187;28;20221;-74
2022/05/31 02:45:23;;;;;;;6.32;5.72;;;11.30;99.90;;;;;;5014309;28;20249;-74
2022/05/31 02:47:50;;;;;;;6.32;5.72;;;11.30;99.90;;;;;;5018588;28;20217;-74
2022/05/31 02:50:17;;;;;;;5.25;4.75;;;11.20;99.90;;;;;;5020092;28;20201;-74
2022/05/31 02:52:43;;;;;;;6.18;5.57;;;11.20;99.90;;;;;;5019693;28;20601;-73
2022/05/31 02:55:11;;;;;;;7.53;5.68;;;11.20;99.90;;;;;;5024407;28;20255;-73
2022/05/31 02:57:37;;;;;;;5.75;4.90;;;11.20;99.90;;;;;;5026566;28;20265;-73
2022/05/31 03:00:08;;;;;;;5.80;5.25;;;11.30;99.90;;;;;;5028779;28;20304;-75
2022/05/31 03:02:36;;;;;;;6.55;5.63;;;11.20;99.90;;;;;;5025348;28;20281;-73
2022/05/31 03:05:04;;;;;;;8.38;5.15;;;11.30;99.90;;;;;;5020941;28;20225;-73
2022/05/31 03:07:31;;;;;;;6.13;5.22;;;11.20;99.90;;;;;;5021690;28;20286;-73
2022/05/31 03:09:58;;;;;;;8.15;4.90;;;11.20;99.90;;;;;;5008260;28;20286;-74
2022/05/31 03:12:27;;;;;;;6.53;5.75;;;11.20;99.90;;;;;;5009653;28;20267;-73
2022/05/31 03:14:58;;;;;;;9.18;5.45;;;11.20;99.90;;;;;;5030545;28;20312;-72
2022/05/31 03:17:32;;;;;;;6.40;5.80;;;11.30;99.90;;;;;;5014797;28;20264;-74
2022/05/31 03:20:05;;;;;;;7.20;6.50;;;11.30;99.90;;;;;;5031376;28;20627;-73
2022/05/31 03:22:37;;;;;;;7.35;5.45;;;11.30;99.90;;;;;;5022238;28;20293;-73
2022/05/31 03:25:08;;;;;;;6.55;5.90;;;11.40;99.90;;;;;;5014555;28;20226;-73
2022/05/31 03:27:36;;;;;;;6.22;5.43;;;11.40;99.90;;;;;;5015917;28;20203;-73
2022/05/31 03:30:05;;;;;;;6.60;5.85;;;11.40;99.90;;;;;;5013821;28;20205;-74
2022/05/31 03:32:37;;;;;;;8.48;5.80;;;11.40;99.90;;;;;;5007549;28;20232;-73
2022/05/31 03:35:05;;;;;;;7.10;5.20;;;11.40;99.90;;;;;;5010186;28;20221;-73
2022/05/31 03:37:34;;;;;;;6.13;5.53;;;11.50;99.90;;;;;;5014442;28;20557;-72
2022/05/31 03:40:01;;;;;;;6.18;5.38;;;11.50;99.90;;;;;;5013202;28;20201;-73
2022/05/31 03:42:29;;;;;;;9.95;7.22;;;11.50;99.90;;;;;;5014122;28;20315;-72
2022/05/31 03:44:56;;;;;;;7.80;6.70;;;11.50;99.90;;;;;;5013340;28;20221;-73
2022/05/31 03:47:23;;;;;;;7.05;5.35;;;11.40;99.90;;;;;;5013799;28;20294;-73
2022/05/31 03:49:51;;;;;;;6.10;5.43;;;11.50;99.90;;;;;;5013378;28;20294;-73
2022/05/31 03:52:19;;;;;;;8.23;6.88;;;11.60;99.90;;;;;;5013818;28;20604;-73
2022/05/31 03:54:45;;;;;;;6.00;5.43;;;11.60;99.90;;;;;;5013263;28;20284;-73
2022/05/31 03:57:18;;;;;;;7.38;6.50;;;11.60;99.90;;;;;;5013063;28;20202;-73
2022/05/31 03:59:45;;;;;;;10.02;7.20;;;11.70;99.90;;;;;;5009439;28;20314;-74
2022/05/31 04:02:12;;;;;;;10.68;6.55;;;11.70;99.90;;;;;;5013445;28;20323;-74
2022/05/31 04:04:39;;;;;;;8.27;6.97;;;11.70;99.90;;;;;;5015570;28;20336;-74
2022/05/31 04:07:07;;;;;;;8.80;6.38;;;11.70;99.90;;;;;;5011274;28;20227;-74
2022/05/31 04:09:34;;;;;;;8.05;7.20;;;11.60;99.90;;;;;;5005872;28;20207;-74
2022/05/31 04:12:01;;;;;;;8.88;7.40;;;11.70;99.90;;;;;;5002755;28;20221;-72
2022/05/31 04:14:28;;;;;;;10.20;6.55;;;11.70;99.90;;;;;;5007062;28;20197;-74
2022/05/31 04:16:55;;;;;;;7.35;6.68;;;11.70;99.90;;;;;;5017085;28;20202;-73
2022/05/31 04:19:23;;;;;;;7.90;6.90;;;11.80;99.90;;;;;;5010387;28;20688;-72
2022/05/31 04:21:50;;;;;;;9.40;6.90;;;12.00;99.90;;;;;;5012918;28;20207;-73
2022/05/31 04:24:22;;;;;;;9.20;7.10;;;12.00;99.90;;;;;;5010983;28;20204;-73
2022/05/31 04:26:49;;;;;;;8.00;7.20;;;11.90;99.90;;;;;;5005903;28;20307;-74
2022/05/31 04:29:16;;;;;;;10.75;6.97;;;11.90;99.90;;;;;;5011729;28;20207;-74
2022/05/31 04:31:43;;;;;;;8.63;7.28;;;12.00;99.90;;;;;;5004033;28;20204;-73
2022/05/31 04:34:10;;;;;;;9.68;6.75;;;12.10;99.90;;;;;;5011101;28;20274;-72
2022/05/31 04:36:37;;;;;;;7.72;6.97;;;12.30;99.90;;;;;;5011879;28;20631;-72
2022/05/31 04:39:05;;;;;;;8.98;7.22;;;12.40;99.90;;;;;;5009594;28;20206;-72
2022/05/31 04:41:33;;;;;;;7.88;6.88;;;12.50;99.90;;;;;;5017531;28;20234;-72
2022/05/31 04:44:04;;;;;;;9.18;6.53;;;12.40;99.90;;;;;;5005106;28;20217;-73
2022/05/31 04:46:33;;;;;;;9.73;7.18;;;12.50;99.90;;;;;;5013597;28;20232;-72
2022/05/31 04:49:02;;;;;;;8.60;6.40;;;12.50;99.90;;;;;;5012359;28;20205;-72
2022/05/31 04:51:32;;;;;;;9.38;7.03;;;12.70;99.90;;;;;;5020194;28;20207;-72
2022/05/31 04:53:59;;;;;;;7.47;6.57;;;12.80;99.90;;;;;;5017107;28;20250;-73
2022/05/31 04:56:27;;;;;;;13.13;7.47;;;12.80;99.90;;;;;;5010342;28;20682;-73
2022/05/31 04:58:56;;;;;;;10.07;6.50;;;12.80;99.90;;;;;;5017208;28;20208;-73
2022/05/31 05:01:24;;;;;;;11.38;7.30;;;12.90;99.90;;;;;;5012950;28;20327;-73
2022/05/31 05:03:52;;;;;;;8.00;6.93;;;12.80;99.90;;;;;;5008454;28;20229;-73
2022/05/31 05:06:20;;;;;;;9.48;6.40;;;12.80;99.90;;;;;;5004441;28;20715;-73
2022/05/31 05:08:48;;;;;;;10.15;5.93;;;13.00;99.90;;;;;;5003050;28;20201;-74
2022/05/31 05:11:17;;;;;;;7.40;5.85;;;13.10;99.90;;;;;;4996820;28;20213;-73
2022/05/31 05:13:45;;;;;;;11.63;5.57;;;13.30;99.90;;;;;;5004995;28;20259;-73
2022/05/31 05:16:16;;;;;;;11.32;6.60;;;13.40;99.90;;;;;;5010159;28;20230;-73
2022/05/31 05:18:43;;;;;;;10.38;5.10;;;13.50;99.90;;;;;;5005960;28;20211;-73
2022/05/31 05:21:14;;;;;;;8.43;5.72;;;13.60;99.90;;;;;;5012363;28;20197;-74
2022/05/31 05:23:42;;;;;;;9.80;7.55;;;13.50;99.90;;;;;;5006675;28;20225;-74
2022/05/31 05:26:10;;;;;;;7.72;6.13;;;13.60;99.90;;;;;;5002198;28;20229;-73
2022/05/31 05:31:26;;;;;;;11.45;6.30;;;14.00;99.90;;;;;;5012402;28;20208;-74
2022/05/31 05:33:56;;;;;;;7.22;5.45;;;14.40;99.90;;;;;;5009672;28;20659;-74
2022/05/31 05:36:24;;;;;;;11.63;5.32;;;15.10;99.90;;;;;;5010330;28;20252;-74
2022/05/31 05:38:51;;;;;;;11.38;5.00;;;15.30;99.90;;;;;;5010411;28;20235;-73
2022/05/31 05:41:20;;;;;;;8.45;6.65;;;15.30;99.90;;;;;;5013045;28;20212;-74
2022/05/31 05:43:48;;;;;;;7.47;5.97;;;15.10;99.90;;;;;;5016041;28;20223;-74
2022/05/31 05:46:16;;;;;;;8.27;6.90;;;14.90;99.90;;;;;;5020126;28;20229;-74
2022/05/31 05:48:45;;;;;;;7.15;5.47;;;14.60;99.90;;;;;;5019666;28;21022;-74
2022/05/31 05:51:14;;;;;;;6.78;5.57;;;14.50;99.90;;;;;;5006952;28;20282;-74
2022/05/31 05:53:41;;;;;;;5.78;4.70;;;14.50;99.90;;;;;;5008227;28;20551;-74
2022/05/31 05:56:10;;;;;;;11.43;5.70;;;14.40;99.90;;;;;;5014816;28;20315;-75
2022/05/31 05:58:39;;;;;;;6.10;4.32;;;14.40;99.90;;;;;;5006588;28;20198;-75
2022/05/31 06:01:10;;;;;;;7.47;5.38;;;14.40;99.90;;;;;;5013452;28;20204;-74
2022/05/31 06:03:43;;;;;;;5.10;4.53;;;14.40;99.90;;;;;;5010108;28;20232;-74
2022/05/31 06:06:14;;;;;;;5.68;4.90;;;14.30;99.90;;;;;;5015737;28;20229;-74
2022/05/31 06:08:45;;;;;;;9.52;5.00;;;14.20;99.90;;;;;;5012167;28;20244;-74
2022/05/31 06:11:15;;;;;;;8.38;4.47;;;14.30;99.90;;;;;;5019062;28;20944;-74
2022/05/31 06:13:50;;;;;;;7.97;4.20;;;14.50;99.90;;;;;;5020313;28;20208;-75
2022/05/31 06:16:19;;;;;;;5.57;4.30;;;14.60;99.90;;;;;;5019485;28;20226;-73
2022/05/31 06:18:51;;;;;;;7.63;4.30;;;14.90;99.90;;;;;;5014478;28;20609;-74
2022/05/31 06:21:22;;;;;;;6.18;4.53;;;15.20;99.90;;;;;;5008395;28;20209;-76
2022/05/31 06:23:49;;;;;;;7.82;4.60;;;15.40;99.90;;;;;;5013704;28;20308;-74
2022/05/31 06:26:17;;;;;;;7.60;4.22;;;15.30;99.90;;;;;;5012738;28;20233;-75
2022/05/31 06:28:46;;;;;;;8.82;5.63;;;15.30;99.90;;;;;;5009947;28;20228;-74
2022/05/31 06:31:13;;;;;;;4.82;4.32;;;15.30;99.90;;;;;;5012270;28;20224;-74
2022/05/31 06:33:41;;;;;;;6.22;4.15;;;15.40;99.90;;;;;;5009627;28;20201;-74
2022/05/31 06:36:08;;;;;;;6.70;4.45;;;15.40;99.90;;;;;;5012218;28;20307;-74
2022/05/31 06:38:36;;;;;;;8.18;4.55;;;15.50;99.90;;;;;;5009914;28;20197;-74
2022/05/31 06:41:04;;;;;;;7.18;4.32;;;15.60;99.90;;;;;;5012924;28;20234;-74
2022/05/31 06:43:33;;;;;;;4.95;4.28;;;15.70;99.90;;;;;;5013183;28;20297;-73
2022/05/31 06:46:04;;;;;;;5.30;4.80;;;15.70;99.90;;;;;;5013674;28;20704;-75
2022/05/31 06:48:31;;;;;;;6.43;4.20;;;15.80;99.90;;;;;;5014546;28;20652;-74
2022/05/31 06:50:58;;;;;;;4.47;4.07;;;15.80;99.90;;;;;;5015177;28;20202;-75
2022/05/31 06:58:55;;;;;;;5.20;3.80;;;16.30;99.90;;;;;;5025948;28;20253;-75
2022/05/31 07:01:30;;;;;;;6.05;4.80;;;16.20;99.90;;;;;;5019833;28;20313;-74
2022/05/31 07:03:57;;;;;;;6.63;4.50;;;16.40;99.90;;;;;;5027501;28;20230;-75
2022/05/31 07:06:23;;;;;;;5.38;4.15;;;16.60;99.80;;;;;;5021768;28;20358;-75
2022/05/31 07:08:50;;;;;;;6.70;5.40;;;16.90;98.80;;;;;;5011927;28;20266;-74
2022/05/31 07:11:18;;;;;;;6.47;4.20;;;17.10;98.20;;;;;;5012177;28;20458;-74
2022/05/31 07:13:45;;;;;;;4.03;3.63;;;17.10;97.70;;;;;;5003754;28;20197;-76
2022/05/31 07:16:12;;;;;;;5.50;3.67;;;17.00;96.80;;;;;;5010609;28;20467;-76
2022/05/31 07:18:39;;;;;;;4.70;3.57;;;17.20;97.20;;;;;;5010481;28;20626;-75
2022/05/31 07:21:06;;;;;;;7.03;4.40;;;17.60;97.00;;;;;;5004206;28;20963;-76
2022/05/31 07:23:34;;;;;;;4.23;3.20;;;17.90;96.80;;;;;;5013691;28;20483;-75
2022/05/31 07:26:02;;;;;;;6.53;4.10;;;18.30;95.00;;;;;;5011294;28;20500;-74
2022/05/31 07:28:30;;;;;;;6.40;4.53;;;18.80;93.80;;;;;;5013576;28;20467;-74
2022/05/31 07:30:58;;;;;;;3.70;2.93;;;19.30;93.70;;;;;;5008635;28;20541;-74
2022/05/31 07:33:25;;;;;;;3.77;3.43;;;19.70;92.00;;;;;;5010841;28;20498;-74
2022/05/31 07:35:52;;;;;;;4.50;3.30;;;20.00;91.10;;;;;;5008238;28;20483;-74
2022/05/31 07:38:20;;;;;;;5.77;3.80;;;20.70;90.10;;;;;;5007862;28;20584;-74
2022/05/31 07:40:49;;;;;;;7.77;4.30;;;20.90;88.50;;;;;;5009510;28;20446;-76
2022/05/31 07:43:16;;;;;;;4.10;3.70;;;21.50;89.10;;;;;;5014649;28;20884;-76
2022/05/31 07:45:45;;;;;;;5.30;4.20;;;22.20;86.00;;;;;;5012682;28;20478;-75
2022/05/31 07:48:12;;;;;;;5.00;3.50;;;22.80;83.80;;;;;;5014324;28;20958;-77
2022/05/31 07:50:39;;;;;;;7.10;4.43;;;22.70;82.80;;;;;;5019315;28;20929;-77
2022/05/31 07:53:06;;;;;;;5.97;3.10;;;22.30;79.30;;;;;;5023794;28;20486;-78
2022/05/31 07:55:33;;;;;;;6.93;3.27;;;22.90;80.40;;;;;;5011771;28;20512;-75
2022/05/31 08:00:46;;;;;;;4.20;3.10;;;23.90;79.30;;;;;;5007836;28;20515;-75
2022/05/31 08:03:13;;;;;;;6.40;3.20;;;24.60;76.40;;;;;;5010417;28;21019;-76
2022/05/31 08:05:41;;;;;;;5.43;3.20;;;24.20;75.30;;;;;;5013418;28;20464;-74
2022/05/31 08:08:11;;;;;;;4.13;2.87;;;24.00;76.60;;;;;;5013449;28;20502;-77
2022/05/31 08:10:39;;;;;;;4.87;2.20;;;24.50;75.80;;;;;;5016585;28;20459;-75
2022/05/31 08:13:06;;;;;;;5.40;3.87;;;24.90;75.70;;;;;;5011908;28;20836;-74
2022/05/31 08:15:33;;;;;;;4.10;3.27;;;25.50;71.60;;;;;;4997147;28;20482;-76
2022/05/31 08:18:02;;;;;;;4.07;3.23;;;26.70;70.10;;;;;;5013749;28;20502;-76
2022/05/31 08:20:28;;;;;;;6.40;3.13;;;26.30;69.10;;;;;;5005029;28;20535;-75
2022/05/31 08:22:55;;;;;;;6.33;3.10;;;25.70;69.70;;;;;;5008721;28;20483;-75
2022/05/31 08:25:23;;;;;;;3.20;2.60;;;25.60;70.90;;;;;;5008289;28;21010;-76
2022/05/31 08:27:50;;;;;;;6.00;3.67;;;26.40;70.20;;;;;;5011782;28;20558;-76
2022/05/31 08:30:18;;;;;;;6.83;3.83;;;26.70;68.70;;;;;;5010562;28;20437;-77
2022/05/31 08:32:44;;;;;;;4.60;3.50;;;27.30;67.70;;;;;;5021478;28;20985;-77
2022/05/31 08:35:13;;;;;;;4.90;3.43;;;27.70;67.20;;;;;;5013507;28;20562;-76
2022/05/31 08:37:40;;;;;;;4.40;3.20;;;28.40;66.10;;;;;;5014332;28;20448;-78
2022/05/31 08:40:08;;;;;;;6.90;3.80;;;27.90;63.30;;;;;;5010715;28;20509;-77
2022/05/31 08:42:50;;;;;;;4.57;3.37;;;28.20;63.70;;;;;;5013870;28;20615;-76
2022/05/31 08:45:31;;;;;;;4.07;3.30;;;29.00;62.10;;;;;;5014501;28;20524;-76
2022/05/31 08:48:04;;;;;;;5.67;2.83;;;28.80;61.10;;;;;;5014595;28;20456;-78
2022/05/31 08:53:29;;;;;;;4.63;3.23;;;27.30;61.30;;;;;;5014478;28;20462;-73
2022/05/31 08:58:48;;;;;;;7.17;4.20;;;24.90;65.40;;;;;;5009717;28;20435;-76
2022/05/31 09:01:19;;;;;;;4.33;3.60;;;24.40;67.80;;;;;;5009777;28;20447;-77
2022/05/31 09:03:50;;;;;;;4.57;3.30;;;23.20;68.60;;;;;;5007023;28;20523;-76
2022/05/31 09:06:23;;;;;;;6.50;3.20;;;22.60;71.10;;;;;;5006544;28;20451;-75
2022/05/31 09:09:01;;;;;;;4.03;2.90;;;22.10;73.00;;;;;;5009736;28;20532;-74
2022/05/31 09:11:33;;;;;;;5.30;3.17;;;21.80;73.80;;;;;;5009114;28;20867;-74
2022/05/31 09:14:06;;;;;;;2.30;2.10;;;23.00;74.60;;;;;;5007977;28;20970;-77
2022/05/31 09:16:44;;;;;;;3.20;2.50;;;24.70;69.70;;;;;;5006355;28;20885;-75
2022/05/31 09:19:16;;;;;;;4.37;3.03;;;26.40;65.90;;;;;;5005966;28;20468;-74
2022/05/31 09:21:48;;;;;;;3.13;2.70;;;27.10;63.30;;;;;;5012761;28;20436;-74
2022/05/31 09:24:20;;;;;;;2.97;2.17;;;27.80;61.20;;;;;;5019493;28;20495;-75
2022/05/31 09:27:00;;;;;;;3.50;3.20;;;28.10;61.70;;;;;;5021171;28;20449;-74
2022/05/31 09:29:33;;;;;;;3.70;2.07;;;28.10;58.40;;;;;;5004536;28;20487;-74
2022/05/31 09:32:10;;;;;;;3.53;2.10;;;27.70;58.60;;;;;;4997634;28;20460;-75
2022/05/31 09:35:04;;;;;;;3.20;2.63;;;27.80;58.90;;;;;;5015121;28;20471;-75
2022/05/31 09:37:56;;;;;;;4.33;2.37;;;28.30;59.70;;;;;;5007291;28;20950;-75
2022/05/31 09:40:39;;;;;;;3.00;2.40;;;28.90;58.20;;;;;;4991450;28;20482;-75
2022/05/31 09:43:22;;;;;;;7.77;2.10;;;28.70;58.10;;;;;;5007432;28;20529;-75
2022/05/31 09:45:56;;;;;;;5.13;2.70;;;28.10;57.20;;;;;;5015817;28;20511;-75
2022/05/31 09:48:23;;;;;;;3.10;2.37;;;27.60;57.50;;;;;;4997261;28;20788;-75
2022/05/31 09:50:59;;;;;;;5.03;3.13;;;26.90;59.40;;;;;;5014008;28;20479;-75
2022/05/31 09:59:09;;;;;;;4.23;2.60;;;24.50;59.00;;;;;;4988711;28;20439;-75
2022/05/31 10:01:43;;;;;;;7.83;2.40;;;23.90;61.00;;;;;;5013927;28;20446;-75
2022/05/31 10:04:14;;;;;;;6.37;3.07;;;22.80;63.60;;;;;;5014921;28;20478;-75
2022/05/31 10:06:57;;;;;;;3.03;1.70;;;22.30;64.50;;;;;;5012261;28;20474;-75
2022/05/31 10:09:33;;;;;;;2.13;1.93;;;22.80;65.00;;;;;;5008422;28;20542;-75
2022/05/31 10:12:12;;;;;;;6.33;2.50;;;23.30;64.30;;;;;;5012989;28;20519;-73
2022/05/31 10:14:42;;;;;;;2.53;1.80;;;23.90;62.70;;;;;;5009774;28;20436;-74
2022/05/31 10:17:29;;;;;;;3.73;2.43;;;25.00;61.50;;;;;;5011415;28;20462;-75
2022/05/31 10:20:12;;;;;;;1.90;1.70;;;25.60;59.30;;;;;;5015096;28;20538;-75
2022/05/31 10:22:40;;;;;;;6.47;2.60;;;26.00;57.90;;;;;;5013758;28;20466;-76
2022/05/31 10:25:23;;;;;;;5.77;2.20;;;25.80;57.90;;;;;;5015504;28;20490;-75
2022/05/31 10:28:01;;;;;;;2.67;1.60;;;24.80;58.50;;;;;;5009901;28;20448;-75
2022/05/31 10:30:29;;;;;;;3.03;2.53;;;24.10;58.90;;;;;;5009865;28;20448;-75
2022/05/31 10:32:58;;;;;;;3.40;1.80;;;24.30;60.90;;;;;;5019326;28;20483;-73
2022/05/31 10:35:28;;;;;;;4.00;2.93;;;24.60;61.60;;;;;;5017608;28;20543;-74
2022/05/31 10:37:59;;;;;;;3.97;2.10;;;24.60;61.40;;;;;;5025062;28;20458;-75
2022/05/31 10:40:37;;;;;;;3.70;1.80;;;24.30;61.30;;;;;;5020419;28;20539;-74
2022/05/31 10:43:18;;;;;;;4.70;1.77;;;23.50;61.80;;;;;;5003355;28;20460;-75
2022/05/31 10:45:48;;;;;;;6.03;2.07;;;23.10;62.00;;;;;;5010635;28;20495;-74
2022/05/31 10:48:15;;;;;;;3.10;1.87;;;23.00;62.40;;;;;;5009177;28;20471;-76
2022/05/31 10:50:55;;;;;;;3.33;1.70;;;22.90;63.40;;;;;;5011180;28;20502;-74
2022/05/31 10:53:34;;;;;;;1.87;1.70;;;23.10;64.80;;;;;;5015592;28;20463;-75
2022/05/31 10:56:11;;;;;;;2.87;1.70;;;22.60;59.10;;;;;;4997056;28;20482;-74
2022/05/31 10:58:54;;;;;;;3.67;2.67;;;22.40;58.20;;;;;;5014798;28;20451;-75
2022/05/31 11:01:35;;;;;;;2.03;1.40;;;22.10;59.20;;;;;;5011916;28;20448;-75
2022/05/31 11:04:14;;;;;;;3.13;1.80;;;22.20;59.60;;;;;;5012821;28;20455;-76
2022/05/31 11:06:57;;;;;;;2.73;1.93;;;22.00;60.40;;;;;;4987040;28;20522;-75
2022/05/31 11:12:42;;;;;;;4.37;1.80;;;22.00;60.70;;;;;;5015523;28;20523;-76
2022/05/31 11:15:20;;;;;;;2.07;1.43;;;21.80;62.50;;;;;;5009726;28;20476;-75
2022/05/31 11:18:23;;;;;;;3.13;1.90;;;21.10;64.20;;;;;;5006911;28;20822;-76
2022/05/31 11:20:56;;;;;;;2.10;1.90;;;20.90;64.80;;;;;;5013067;28;20521;-75
2022/05/31 11:23:46;;;;;;;6.07;2.30;;;21.00;67.10;;;;;;5014251;28;20830;-75
2022/05/31 11:26:39;;;;;;;2.40;1.33;;;20.80;65.90;;;;;;5013827;28;20573;-75
2022/05/31 11:29:42;;;;;;;4.00;2.10;;;20.50;64.80;;;;;;4993043;28;20479;-74
2022/05/31 11:32:16;;;;;;;4.63;2.00;;;20.60;64.60;;;;;;5006859;28;21010;-75
2022/05/31 11:35:00;;;;;;;5.03;2.27;;;20.30;66.10;;;;;;5015343;28;20788;-74
2022/05/31 11:37:41;;;;;;;9.93;2.40;;;20.00;66.80;;;;;;4996497;28;20865;-75
2022/05/31 11:40:30;;;;;;;2.47;1.50;;;19.80;65.60;;;;;;4995879;28;20456;-74
2022/05/31 11:43:30;;;;;;;3.60;1.83;;;19.60;66.00;;;;;;5014290;28;20444;-75
2022/05/31 11:46:04;;;;;;;2.33;1.73;;;19.50;67.00;;;;;;4971192;28;20495;-75
2022/05/31 11:48:57;;;;;;;2.90;1.80;;;19.40;68.20;;;;;;5016926;28;20475;-75
2022/05/31 11:52:00;;;;;;;1.90;1.50;;;19.40;69.30;;;;;;5005461;28;20491;-75
2022/05/31 11:57:50;;;;;;;2.40;2.13;;;19.30;68.90;;;;;;5017388;28;20487;-75
2022/05/31 12:00:19;;;;;;;2.80;2.13;;;19.40;68.20;;;;;;5009657;28;20455;-74
2022/05/31 12:02:51;;;;;;;2.90;1.73;;;19.30;69.40;;;;;;5012540;28;20436;-74
2022/05/31 12:05:25;;;;;;;4.43;2.53;;;19.40;69.20;;;;;;5009988;28;20582;-75
2022/05/31 12:07:57;;;;;;;3.73;2.00;;;19.40;68.80;;;;;;5012612;28;20464;-76
2022/05/31 12:10:28;;;;;;;2.57;1.80;;;19.60;69.10;;;;;;5015756;28;20447;-75
2022/05/31 12:12:59;;;;;;;3.43;1.70;;;19.60;68.40;;;;;;5008849;28;20957;-74
2022/05/31 12:15:31;;;;;;;2.47;1.73;;;19.80;67.10;;;;;;5024012;28;20473;-75
2022/05/31 12:18:01;;;;;;;2.50;1.43;;;19.90;68.40;;;;;;5016271;28;20482;-74
2022/05/31 12:20:38;;;;;;;5.53;1.93;;;19.80;66.90;;;;;;5012468;28;20442;-74
2022/05/31 12:23:11;;;;;;;2.80;1.87;;;20.00;67.30;;;;;;4994508;28;20523;-73
2022/05/31 12:25:43;;;;;;;4.27;2.60;;;19.70;67.40;;;;;;5011620;28;20574;-76
2022/05/31 12:28:18;;;;;;;3.30;2.23;;;19.60;68.10;;;;;;5011993;28;20476;-75
2022/05/31 12:30:54;;;;;;;4.17;1.70;;;19.40;67.70;;;;;;4994058;28;20454;-74
2022/05/31 12:33:33;;;;;;;3.00;1.90;;;19.40;68.70;;;;;;5013349;28;20527;-75
2022/05/31 12:36:01;;;;;;;4.33;1.47;;;19.30;68.50;;;;;;5012062;28;20475;-75
2022/05/31 12:38:28;;;;;;;2.93;1.73;;;19.30;70.50;;;;;;5000052;28;20509;-75
2022/05/31 12:40:56;;;;;;;2.73;1.90;;;19.30;68.70;;;;;;5010106;28;20448;-75
2022/05/31 12:43:47;;;;;;;2.23;1.33;;;19.40;67.30;;;;;;5013031;28;20444;-75
2022/05/31 12:46:23;;;;;;;1.87;1.50;;;19.40;66.80;;;;;;5009966;28;20560;-75
2022/05/31 12:48:59;;;;;;;4.47;2.03;;;19.50;68.40;;;;;;5012779;28;20441;-76
2022/05/31 12:51:28;;;;;;;2.53;1.63;;;19.40;67.70;;;;;;4996070;28;20445;-75
2022/05/31 12:54:10;;;;;;;3.90;1.37;;;19.40;68.20;;;;;;5014938;28;20443;-75
2022/05/31 12:56:56;;;;;;;1.87;1.50;;;19.40;68.80;;;;;;5005761;28;20550;-76
2022/05/31 12:59:56;;;;;;;3.43;1.40;;;19.20;68.20;;;;;;5000494;28;20950;-76
2022/05/31 13:02:36;;;;;;;5.70;1.83;;;19.30;69.70;;;;;;4933649;29;20945;-75
2022/05/31 13:05:23;;;;;;;2.50;1.13;;;19.30;69.20;;;;;;4934504;29;20589;-74
2022/05/31 13:08:12;;;;;;;3.13;1.73;;;19.30;69.40;;;;;;4987548;28;20462;-75
2022/05/31 13:19:34;;;;;;;2.73;1.70;;;19.40;69.10;;;;;;5016088;28;20863;-74
2022/05/31 13:22:03;;;;;;;5.03;2.73;;;19.50;69.00;;;;;;5015186;28;20427;-75
2022/05/31 13:24:34;;;;;;;3.30;1.97;;;19.70;69.40;;;;;;5017753;28;20874;-75
2022/05/31 13:27:05;;;;;;;3.43;1.60;;;19.90;69.00;;;;;;5012308;28;20448;-74
2022/05/31 13:29:32;;;;;;;2.03;1.63;;;19.90;69.20;;;;;;5016213;28;20456;-77
2022/05/31 13:32:01;;;;;;;2.07;1.87;;;19.90;69.60;;;;;;5016662;28;20448;-75
2022/05/31 13:34:32;;;;;;;2.60;1.40;;;20.20;68.20;;;;;;5007172;28;20902;-75
2022/05/31 13:37:03;;;;;;;1.90;1.67;;;20.30;67.40;;;;;;5010111;28;20546;-76
2022/05/31 13:39:32;;;;;;;2.23;1.70;;;20.20;67.50;;;;;;5009905;28;20477;-75
2022/05/31 13:42:04;;;;;;;5.63;2.27;;;20.10;67.60;;;;;;5014922;28;20455;-75
2022/05/31 13:44:35;;;;;;;1.83;1.30;;;20.10;67.70;;;;;;5013700;28;20479;-75
2022/05/31 13:47:06;;;;;;;4.13;1.73;;;20.00;67.30;;;;;;5010076;28;20526;-75
2022/05/31 13:49:38;;;;;;;4.03;1.87;;;20.20;67.30;;;;;;5012185;28;20508;-75